createdAt,value
2023-05-02T00:01:28.888Z,18.60
2023-05-02T00:03:55.963Z,18.60
2023-05-02T00:06:23.027Z,18.50
2023-05-02T00:08:50.450Z,18.50
2023-05-02T00:11:17.367Z,18.50
2023-05-02T00:13:44.740Z,18.40
2023-05-02T00:16:11.572Z,18.40
2023-05-02T00:18:38.354Z,18.40
2023-05-02T00:21:05.586Z,18.40
2023-05-02T00:23:32.870Z,18.30
2023-05-02T00:25:59.866Z,18.20
2023-05-02T00:28:27.097Z,18.20
2023-05-02T00:30:54.026Z,18.10
2023-05-02T00:33:20.872Z,18.10
2023-05-02T00:35:47.708Z,18.00
2023-05-02T00:38:14.769Z,17.90
2023-05-02T00:40:46.116Z,17.90
2023-05-02T00:43:13.340Z,17.90
2023-05-02T00:45:42.205Z,17.80
2023-05-02T00:48:10.463Z,17.80
2023-05-02T00:50:42.449Z,17.70
2023-05-02T00:53:10.773Z,17.90
2023-05-02T00:55:38.271Z,17.60
2023-05-02T00:58:12.161Z,17.60
2023-05-02T01:00:54.697Z,20.50
2023-05-02T01:03:33.856Z,17.50
2023-05-02T01:06:06.999Z,17.40
2023-05-02T01:08:50.905Z,17.40
2023-05-02T01:11:38.961Z,17.20
2023-05-02T01:14:14.079Z,17.20
2023-05-02T01:16:43.838Z,17.10
2023-05-02T01:19:19.764Z,17.10
2023-05-02T01:21:48.664Z,17.10
2023-05-02T01:24:26.513Z,17.00
2023-05-02T01:27:24.786Z,17.00
2023-05-02T01:29:52.965Z,16.70
2023-05-02T01:32:23.609Z,16.80
2023-05-02T01:34:53.144Z,16.80
2023-05-02T01:37:22.578Z,16.70
2023-05-02T01:39:51.824Z,16.70
2023-05-02T01:42:20.423Z,16.70
2023-05-02T01:44:48.674Z,16.60
2023-05-02T01:47:15.840Z,16.60
2023-05-02T01:49:44.027Z,16.50
2023-05-02T01:52:13.978Z,16.50
2023-05-02T01:54:42.521Z,16.40
2023-05-02T01:57:11.832Z,16.40
2023-05-02T01:59:42.353Z,16.40
2023-05-02T02:02:10.790Z,16.40
2023-05-02T02:04:39.722Z,16.30
2023-05-02T02:07:09.869Z,16.30
2023-05-02T02:09:37.136Z,16.20
2023-05-02T02:12:07.045Z,16.20
2023-05-02T02:14:44.057Z,16.20
2023-05-02T02:17:21.417Z,16.10
2023-05-02T02:19:52.824Z,16.10
2023-05-02T02:22:21.366Z,16.00
2023-05-02T02:24:49.177Z,16.00
2023-05-02T02:27:16.384Z,16.00
2023-05-02T02:29:43.876Z,15.90
2023-05-02T02:32:10.961Z,15.90
2023-05-02T02:34:37.837Z,15.80
2023-05-02T02:37:14.326Z,15.80
2023-05-02T02:40:02.721Z,15.70
2023-05-02T02:45:30.099Z,15.60
2023-05-02T02:48:15.206Z,15.60
2023-05-02T02:51:16.217Z,15.60
2023-05-02T02:53:59.470Z,15.50
2023-05-02T02:56:37.909Z,15.50
2023-05-02T02:59:27.691Z,15.40
2023-05-02T03:02:06.969Z,15.40
2023-05-02T03:04:38.117Z,15.40
2023-05-02T03:07:05.657Z,15.30
2023-05-02T03:09:46.864Z,15.30
2023-05-02T03:14:48.415Z,15.30
2023-05-02T03:19:42.679Z,15.20
2023-05-02T03:27:05.362Z,15.10
2023-05-02T03:32:06.094Z,15.00
2023-05-02T03:34:33.825Z,15.00
2023-05-02T03:37:01.183Z,15.00
2023-05-02T03:41:56.413Z,14.90
2023-05-02T03:54:22.718Z,14.80
2023-05-02T04:01:51.539Z,14.80
2023-05-02T04:16:53.534Z,14.90
2023-05-02T04:19:27.605Z,14.80
2023-05-02T04:24:22.593Z,14.90
2023-05-02T04:29:17.760Z,14.90
2023-05-02T04:36:48.076Z,15.00
2023-05-02T04:39:22.296Z,14.90
2023-05-02T04:42:16.033Z,15.00
2023-05-02T04:47:18.514Z,14.90
2023-05-02T04:49:45.537Z,15.00
2023-05-02T05:04:36.409Z,15.10
2023-05-02T05:24:19.886Z,15.50
2023-05-02T05:46:37.959Z,15.90
2023-05-02T05:51:35.573Z,15.90
2023-05-02T05:56:30.077Z,16.00
2023-05-02T05:59:04.623Z,16.10
2023-05-02T06:06:31.672Z,16.20
2023-05-02T06:13:53.616Z,16.30
2023-05-02T06:16:21.120Z,16.20
2023-05-02T06:18:50.189Z,16.30
2023-05-02T06:21:17.029Z,16.40
2023-05-02T06:33:34.169Z,16.60
2023-05-02T06:38:31.255Z,16.70
2023-05-02T06:43:25.422Z,16.90
2023-05-02T06:45:56.473Z,16.90
2023-05-02T06:48:23.442Z,16.90
2023-05-02T06:50:52.214Z,16.80
2023-05-02T06:53:19.304Z,17.00
2023-05-02T06:55:47.140Z,17.10
2023-05-02T06:58:14.184Z,17.10
2023-05-02T07:00:41.225Z,17.20
2023-05-02T07:03:08.289Z,17.20
2023-05-02T07:10:30.184Z,17.40
2023-05-02T07:12:57.548Z,17.40
2023-05-02T07:17:51.959Z,17.50
2023-05-02T07:20:19.983Z,17.50
2023-05-02T07:22:46.883Z,17.50
2023-05-02T07:25:13.738Z,17.50
2023-05-02T07:27:40.566Z,17.50
2023-05-02T07:30:08.032Z,17.60
2023-05-02T07:35:02.397Z,17.60
2023-05-02T07:37:36.394Z,17.70
2023-05-02T07:40:04.356Z,17.70
2023-05-02T07:42:31.987Z,17.70
2023-05-02T07:44:59.914Z,15.90
2023-05-02T07:47:27.175Z,17.80
2023-05-02T07:49:55.079Z,17.80
2023-05-02T07:52:22.180Z,17.90
2023-05-02T07:54:52.152Z,17.90
2023-05-02T07:57:19.476Z,17.90
2023-05-02T07:59:46.411Z,17.90
2023-05-02T08:02:14.047Z,17.70
2023-05-02T08:04:41.706Z,17.90
2023-05-02T08:07:08.777Z,17.90
2023-05-02T08:09:35.634Z,17.80
2023-05-02T08:12:03.428Z,18.00
2023-05-02T08:14:30.882Z,18.00
2023-05-02T08:16:59.163Z,18.00
2023-05-02T08:19:26.034Z,18.00
2023-05-02T08:21:54.609Z,21.20
2023-05-02T08:24:21.972Z,18.00
2023-05-02T08:26:48.808Z,18.00
2023-05-02T08:29:15.691Z,13.70
2023-05-02T08:34:10.072Z,18.00
2023-05-02T08:36:37.386Z,15.10
2023-05-02T08:39:04.294Z,21.60
2023-05-02T08:41:31.460Z,18.10
2023-05-02T08:43:59.905Z,18.10
2023-05-02T08:46:28.559Z,18.10
2023-05-02T08:48:59.151Z,14.00
2023-05-02T08:51:28.959Z,16.60
2023-05-02T08:53:57.305Z,18.10
2023-05-02T08:56:25.296Z,18.10
2023-05-02T08:58:52.320Z,18.10
2023-05-02T09:01:23.272Z,18.10
2023-05-02T09:03:50.652Z,18.10
2023-05-02T09:06:19.822Z,18.20
2023-05-02T09:08:52.409Z,14.00
2023-05-02T09:11:20.060Z,18.10
2023-05-02T09:13:52.034Z,18.10
2023-05-02T09:16:27.265Z,18.10
2023-05-02T09:18:56.833Z,18.10
2023-05-02T09:21:26.145Z,18.10
2023-05-02T09:24:00.476Z,18.10
2023-05-02T09:26:32.749Z,18.10
2023-05-02T09:29:01.915Z,14.10
2023-05-02T09:31:54.029Z,18.10
2023-05-02T09:34:22.284Z,18.20
2023-05-02T09:36:51.944Z,18.20
2023-05-02T09:39:26.135Z,18.20
2023-05-02T09:41:54.117Z,18.20
2023-05-02T09:44:23.917Z,18.40
2023-05-02T09:46:52.935Z,18.50
2023-05-02T09:49:20.508Z,18.50
2023-05-02T09:51:48.569Z,18.60
2023-05-02T09:54:39.319Z,18.70
2023-05-02T09:57:07.395Z,18.80
2023-05-02T09:59:34.487Z,18.80
2023-05-02T10:02:07.320Z,18.80
2023-05-02T10:04:34.973Z,14.60
2023-05-02T10:07:03.370Z,18.80
2023-05-02T10:09:34.241Z,18.90
2023-05-02T10:12:08.168Z,18.90
2023-05-02T10:14:45.760Z,18.90
2023-05-02T10:17:19.323Z,18.90
2023-05-02T10:20:01.240Z,19.00
2023-05-02T10:22:28.624Z,19.00
2023-05-02T10:24:58.257Z,19.00
2023-05-02T10:27:25.757Z,19.00
2023-05-02T10:29:53.212Z,19.10
2023-05-02T10:32:22.628Z,19.20
2023-05-02T10:34:51.513Z,19.30
2023-05-02T10:37:19.729Z,19.40
2023-05-02T10:39:46.633Z,19.50
2023-05-02T10:42:14.749Z,19.60
2023-05-02T10:44:41.751Z,19.70
2023-05-02T10:47:21.911Z,19.80
2023-05-02T10:50:01.561Z,20.00
2023-05-02T10:52:29.732Z,20.00
2023-05-02T10:55:16.329Z,20.00
2023-05-02T10:58:09.709Z,20.10
2023-05-02T11:00:37.683Z,20.10
2023-05-02T11:03:04.889Z,20.20
2023-05-02T11:05:37.011Z,20.20
2023-05-02T11:08:33.257Z,20.20
2023-05-02T11:11:38.429Z,20.30
2023-05-02T11:14:05.254Z,20.30
2023-05-02T11:17:06.422Z,20.30
2023-05-02T11:19:39.344Z,20.30
2023-05-02T11:22:21.867Z,20.30
2023-05-02T11:24:50.227Z,20.40
2023-05-02T11:27:29.424Z,18.90
2023-05-02T11:30:00.656Z,20.40
2023-05-02T11:32:49.563Z,20.40
2023-05-02T11:35:21.999Z,20.40
2023-05-02T11:37:56.246Z,20.40
2023-05-02T11:40:24.321Z,16.20
2023-05-02T11:42:51.170Z,20.40
2023-05-02T11:45:18.775Z,20.40
2023-05-02T11:47:49.017Z,20.40
2023-05-02T11:50:16.187Z,20.40
2023-05-02T11:52:44.698Z,20.40
2023-05-02T11:55:15.014Z,20.40
2023-05-02T11:57:42.985Z,20.40
2023-05-02T12:00:13.130Z,20.40
2023-05-02T12:02:45.394Z,20.50
2023-05-02T12:05:15.102Z,20.60
2023-05-02T12:07:45.873Z,20.70
2023-05-02T12:10:13.796Z,20.80
2023-05-02T12:12:43.387Z,20.90
2023-05-02T12:15:12.008Z,17.20
2023-05-02T12:20:17.063Z,21.30
2023-05-02T12:22:44.632Z,21.40
2023-05-02T12:25:11.489Z,21.50
2023-05-02T12:27:38.608Z,21.60
2023-05-02T12:30:06.079Z,22.30
2023-05-02T12:32:35.183Z,21.80
2023-05-02T12:35:03.978Z,21.90
2023-05-02T12:37:31.142Z,22.10
2023-05-02T12:39:57.951Z,22.20
2023-05-02T12:42:26.768Z,22.30
2023-05-02T12:44:54.036Z,22.40
2023-05-02T12:47:24.966Z,22.50
2023-05-02T12:49:59.759Z,22.60
2023-05-02T12:52:47.192Z,22.70
2023-05-02T12:55:20.884Z,22.80
2023-05-02T12:57:48.280Z,22.90
2023-05-02T13:00:17.489Z,23.10
2023-05-02T13:02:44.555Z,23.20
2023-05-02T13:05:18.914Z,23.30
2023-05-02T13:07:45.954Z,23.50
2023-05-02T13:10:15.259Z,23.60
2023-05-02T13:12:43.759Z,23.60
2023-05-02T13:15:11.848Z,23.60
2023-05-02T13:17:39.041Z,23.60
2023-05-02T13:20:08.374Z,23.50
2023-05-02T13:22:39.140Z,23.40
2023-05-02T13:25:07.720Z,23.30
2023-05-02T13:27:34.619Z,23.20
2023-05-02T13:30:03.300Z,23.10
2023-05-02T13:32:31.716Z,22.80
2023-05-02T13:34:58.691Z,22.70
2023-05-02T13:37:26.567Z,22.40
2023-05-02T13:39:53.545Z,22.20
2023-05-02T13:42:20.432Z,22.00
2023-05-02T13:44:47.461Z,21.80
2023-05-02T13:47:14.323Z,21.70
2023-05-02T13:49:41.239Z,21.60
2023-05-02T13:52:08.180Z,21.50
2023-05-02T13:54:34.992Z,21.50
2023-05-02T13:57:02.676Z,21.70
2023-05-02T13:59:29.618Z,22.00
2023-05-02T14:01:56.728Z,22.40
2023-05-02T14:04:23.785Z,22.90
2023-05-02T14:06:50.968Z,23.30
2023-05-02T14:09:17.958Z,23.90
2023-05-02T14:11:47.242Z,24.40
2023-05-02T14:14:14.204Z,24.90
2023-05-02T14:16:41.351Z,25.40
2023-05-02T14:19:08.425Z,25.80
2023-05-02T14:21:40.341Z,26.10
2023-05-02T14:24:07.893Z,26.10
2023-05-02T14:26:34.692Z,26.20
2023-05-02T14:29:02.371Z,26.20
2023-05-02T14:31:30.582Z,26.10
2023-05-02T14:33:57.650Z,25.90
2023-05-02T14:36:24.624Z,25.80
2023-05-02T14:38:51.549Z,25.70
2023-05-02T14:41:18.552Z,25.50
2023-05-02T14:43:45.609Z,25.30
2023-05-02T14:46:12.666Z,25.10
2023-05-02T14:48:39.587Z,24.80
2023-05-02T14:51:07.048Z,24.60
2023-05-02T14:53:33.975Z,24.30
2023-05-02T14:56:00.814Z,24.00
2023-05-02T14:58:27.780Z,23.80
2023-05-02T15:00:54.829Z,22.10
2023-05-02T15:03:22.023Z,23.70
2023-05-02T15:05:49.095Z,23.70
2023-05-02T15:08:16.044Z,23.70
2023-05-02T15:10:43.250Z,23.80
2023-05-02T15:13:10.114Z,23.80
2023-05-02T15:15:37.491Z,23.80
2023-05-02T15:18:04.747Z,23.80
2023-05-02T15:20:32.102Z,23.80
2023-05-02T15:23:03.275Z,23.80
2023-05-02T15:25:30.939Z,23.80
2023-05-02T15:27:57.902Z,23.80
2023-05-02T15:30:25.445Z,23.70
2023-05-02T15:32:52.560Z,23.60
2023-05-02T15:35:19.596Z,23.60
2023-05-02T15:37:46.495Z,20.40
2023-05-02T15:40:14.486Z,23.40
2023-05-02T15:42:41.759Z,23.30
2023-05-02T15:45:12.430Z,23.30
2023-05-02T15:47:40.226Z,23.20
2023-05-02T15:50:08.347Z,23.10
2023-05-02T15:52:35.415Z,23.10
2023-05-02T15:55:05.674Z,23.10
2023-05-02T15:57:32.634Z,23.00
2023-05-02T16:00:04.199Z,23.00
2023-05-02T16:02:34.203Z,22.90
2023-05-02T16:05:02.651Z,23.00
2023-05-02T16:07:30.070Z,23.00
2023-05-02T16:09:56.907Z,22.90
2023-05-02T16:12:26.553Z,22.90
2023-05-02T16:14:53.912Z,22.90
2023-05-02T16:17:23.452Z,22.80
2023-05-02T16:19:51.165Z,22.90
2023-05-02T16:22:18.033Z,22.90
2023-05-02T16:24:44.965Z,23.20
2023-05-02T16:27:11.828Z,23.60
2023-05-02T16:29:38.836Z,24.00
2023-05-02T16:32:07.012Z,24.60
2023-05-02T16:34:33.881Z,25.10
2023-05-02T16:37:03.184Z,25.60
2023-05-02T16:39:30.894Z,26.10
2023-05-02T16:41:58.022Z,26.70
2023-05-02T16:44:24.983Z,27.10
2023-05-02T16:46:52.804Z,27.60
2023-05-02T16:49:19.766Z,28.00
2023-05-02T16:51:51.352Z,28.50
2023-05-02T16:54:18.468Z,29.80
2023-05-02T16:56:45.592Z,30.80
2023-05-02T16:59:12.607Z,29.60
2023-05-02T17:01:39.532Z,29.90
2023-05-02T17:04:06.377Z,30.20
2023-05-02T17:06:33.531Z,30.50
2023-05-02T17:09:00.538Z,30.70
2023-05-02T17:11:28.592Z,30.80
2023-05-02T17:13:55.592Z,30.90
2023-05-02T17:16:22.507Z,32.40
2023-05-02T17:18:49.486Z,30.90
2023-05-02T17:21:16.443Z,30.80
2023-05-02T17:23:43.465Z,30.70
2023-05-02T17:26:15.489Z,30.60
2023-05-02T17:28:43.866Z,30.50
2023-05-02T17:31:11.487Z,30.30
2023-05-02T17:33:38.389Z,30.20
2023-05-02T17:36:05.622Z,29.70
2023-05-02T17:38:32.942Z,29.60
2023-05-02T17:40:59.950Z,29.30
2023-05-02T17:43:26.888Z,29.00
2023-05-02T17:45:53.901Z,28.60
2023-05-02T17:48:21.142Z,27.90
2023-05-02T17:50:49.880Z,25.90
2023-05-02T17:53:17.391Z,27.50
2023-05-02T17:55:44.318Z,27.00
2023-05-02T17:58:11.161Z,26.30
2023-05-02T18:00:38.162Z,25.90
2023-05-02T18:05:38.784Z,25.60
2023-05-02T18:08:07.319Z,25.30
2023-05-02T18:10:38.064Z,25.00
2023-05-02T18:13:05.185Z,24.70
2023-05-02T18:15:32.066Z,24.40
2023-05-02T18:17:59.208Z,24.10
2023-05-02T18:20:26.209Z,23.80
2023-05-02T18:22:57.349Z,23.50
2023-05-02T18:25:24.324Z,23.40
2023-05-02T18:27:51.391Z,23.10
2023-05-02T18:30:19.327Z,22.90
2023-05-02T18:32:46.285Z,22.70
2023-05-02T18:35:13.496Z,22.50
2023-05-02T18:37:41.158Z,22.20
2023-05-02T18:40:08.848Z,22.10
2023-05-02T18:42:36.441Z,22.00
2023-05-02T18:45:05.584Z,21.70
2023-05-02T18:47:33.864Z,21.50
2023-05-02T18:50:01.339Z,21.30
2023-05-02T18:52:30.659Z,21.10
2023-05-02T18:54:57.628Z,21.00
2023-05-02T18:57:25.331Z,20.90
2023-05-02T18:59:53.099Z,20.80
2023-05-02T19:02:21.780Z,20.80
2023-05-02T19:04:48.971Z,20.70
2023-05-02T19:07:16.145Z,20.60
2023-05-02T19:09:43.327Z,20.50
2023-05-02T19:12:10.314Z,20.50
2023-05-02T19:14:39.825Z,20.40
2023-05-02T19:17:07.048Z,20.30
2023-05-02T19:19:34.567Z,20.20
2023-05-02T19:22:01.628Z,20.10
2023-05-02T19:24:31.559Z,20.00
2023-05-02T19:27:00.292Z,20.00
2023-05-02T19:29:27.712Z,19.90
2023-05-02T19:31:54.651Z,19.80
2023-05-02T19:34:22.630Z,19.70
2023-05-02T19:36:49.742Z,19.70
2023-05-02T19:39:16.807Z,19.60
2023-05-02T19:41:44.241Z,19.60
2023-05-02T19:44:11.336Z,19.50
2023-05-02T19:46:38.305Z,19.40
2023-05-02T19:49:05.616Z,19.40
2023-05-02T19:51:34.387Z,19.30
2023-05-02T19:54:01.352Z,19.20
2023-05-02T19:56:28.787Z,19.10
2023-05-02T19:58:59.618Z,19.00
2023-05-02T20:01:29.277Z,18.90
2023-05-02T20:03:58.086Z,18.80
2023-05-02T20:06:25.701Z,18.80
2023-05-02T20:08:53.091Z,18.70
2023-05-02T20:11:20.126Z,18.60
2023-05-02T20:13:47.473Z,18.60
2023-05-02T20:16:15.010Z,18.50
2023-05-02T20:18:42.246Z,18.40
2023-05-02T20:21:09.295Z,18.30
2023-05-02T20:23:36.223Z,18.20
2023-05-02T20:26:03.524Z,18.10
2023-05-02T20:28:30.341Z,18.10
2023-05-02T20:30:57.129Z,18.00
2023-05-02T20:33:27.492Z,18.00
2023-05-02T20:35:57.111Z,18.00
2023-05-02T20:38:24.164Z,17.90
2023-05-02T20:40:51.478Z,17.90
2023-05-02T20:43:19.932Z,17.80
2023-05-02T20:45:47.138Z,17.70
2023-05-02T20:48:16.044Z,17.70
2023-05-02T20:50:50.921Z,15.60
2023-05-02T20:53:17.701Z,17.50
2023-05-02T20:55:44.489Z,17.50
2023-05-02T20:58:11.280Z,17.40
2023-05-02T21:00:38.071Z,17.40
2023-05-02T21:03:05.082Z,17.30
2023-05-02T21:05:31.911Z,17.30
2023-05-02T21:07:58.673Z,17.20
2023-05-02T21:10:28.393Z,17.20
2023-05-02T21:12:55.247Z,17.10
2023-05-02T21:15:22.083Z,13.20
2023-05-02T21:17:49.001Z,17.10
2023-05-02T21:20:16.053Z,17.00
2023-05-02T21:22:42.927Z,17.00
2023-05-02T21:25:10.168Z,16.90
2023-05-02T21:27:37.081Z,16.80
2023-05-02T21:30:04.418Z,16.80
2023-05-02T21:32:31.611Z,16.80
2023-05-02T21:34:58.483Z,16.70
2023-05-02T21:37:25.348Z,16.70
2023-05-02T21:39:52.246Z,16.60
2023-05-02T21:42:19.170Z,16.50
2023-05-02T21:44:46.033Z,16.50
2023-05-02T21:47:12.894Z,16.50
2023-05-02T21:49:40.036Z,16.40
2023-05-02T21:52:06.862Z,16.40
2023-05-02T21:54:33.980Z,16.40
2023-05-02T21:57:02.746Z,16.30
2023-05-02T21:59:29.596Z,16.30
2023-05-02T22:01:57.531Z,16.20
2023-05-02T22:04:24.904Z,16.20
2023-05-02T22:06:52.812Z,16.10
2023-05-02T22:09:20.887Z,16.10
2023-05-02T22:11:47.769Z,16.10
2023-05-02T22:14:14.896Z,16.00
2023-05-02T22:16:41.782Z,16.00
2023-05-02T22:19:11.599Z,16.00
2023-05-02T22:21:38.442Z,15.90
2023-05-02T22:24:05.665Z,15.90
2023-05-02T22:26:32.536Z,15.80
2023-05-02T22:28:59.350Z,15.80
2023-05-02T22:31:27.181Z,15.70
2023-05-02T22:33:53.991Z,15.70
2023-05-02T22:36:20.864Z,15.70
2023-05-02T22:38:47.718Z,15.60
2023-05-02T22:41:15.148Z,15.60
2023-05-02T22:43:41.913Z,15.50
2023-05-02T22:46:08.721Z,15.50
2023-05-02T22:48:35.626Z,13.00
2023-05-02T22:51:02.459Z,15.60
2023-05-02T22:53:30.241Z,15.40
2023-05-02T22:55:57.398Z,15.50
2023-05-02T22:58:24.360Z,15.30
2023-05-02T23:00:51.413Z,15.30
2023-05-02T23:03:18.318Z,15.20
2023-05-02T23:05:45.381Z,15.20
2023-05-02T23:08:12.197Z,15.20
2023-05-02T23:10:39.025Z,15.10
2023-05-02T23:13:06.297Z,15.10
2023-05-02T23:15:33.104Z,15.10
2023-05-02T23:17:59.925Z,15.00
2023-05-02T23:20:26.832Z,16.00
2023-05-02T23:22:53.618Z,15.00
2023-05-02T23:25:21.181Z,14.90
2023-05-02T23:27:48.080Z,14.90
2023-05-02T23:30:14.924Z,14.80
2023-05-02T23:32:41.940Z,14.80
2023-05-02T23:35:11.048Z,14.70
2023-05-02T23:37:39.079Z,14.70
2023-05-02T23:40:09.260Z,14.70
2023-05-02T23:42:39.913Z,14.70
2023-05-02T23:45:11.017Z,14.60
2023-05-02T23:47:38.397Z,14.60
2023-05-02T23:50:06.069Z,14.60
2023-05-02T23:52:33.372Z,14.50
2023-05-02T23:55:00.339Z,14.50
2023-05-02T23:57:29.748Z,14.60
2023-05-02T23:59:56.756Z,14.40
